Valgardena — ICKG — position and weather

sailwx.info

Track history (hours):
 
Tides and Currents Weather Stations Pressure Air Temp Water Temp Dewpoint Dewpoint Depression Visibility Wind Speed Wind Dir Waves Ship Positions

Valgardena

Last reported at 2015-Feb-21 08:28 UTC. Time now 2015-Mar-02 23:09 UTC.
Position N 38°10' E 015°35'.
Warning: this ship's position is 9 days out of date.

Length 184 m; draft 7.5 m.

Type: Ship. MMSI: 247243800.

Date/timePositionNaut miles runAvg speedWind from/ knotsBaromVisibWave heightAir tempDewpointWater temp
2015-Feb-21 08:28N 38°10' E 015°35'10 8.5
2015-Feb-21 07:15N 38°20' E 015°36'913.0
2015-Feb-21 06:32N 38°18' E 015°24'8 8.6
2015-Feb-21 05:33N 38°13' E 015°16'0 0.0
2015-Feb-21 04:33N 38°13' E 015°16'0 0.0
2015-Feb-21 03:33N 38°13' E 015°16'0 0.0
2015-Feb-21 02:33N 38°13' E 015°16'0 0.0
2015-Feb-21 01:33N 38°13' E 015°16'0 0.0
2015-Feb-21 00:33N 38°13' E 015°16'0 0.0
2015-Feb-20 23:33N 38°13' E 015°16'0 0.0
2015-Feb-20 22:33N 38°13' E 015°16'0 0.0
2015-Feb-20 21:33N 38°13' E 015°16'0 0.0
2015-Feb-20 20:33N 38°13' E 015°16'0 0.0
2015-Feb-20 19:33N 38°13' E 015°16'0 0.0
2015-Feb-20 18:33N 38°13' E 015°16'0 0.0
2015-Feb-20 17:33N 38°13' E 015°16'0 0.0
2015-Feb-20 16:33N 38°13' E 015°16'0 0.0
2015-Feb-20 15:33N 38°13' E 015°16'0 0.0
2015-Feb-20 14:33N 38°13' E 015°16'0 0.0
2015-Feb-20 13:33N 38°13' E 015°16'0 0.0
2015-Feb-20 12:33N 38°13' E 015°16'0 0.0
2015-Feb-20 11:33N 38°13' E 015°16'0 0.0
2015-Feb-20 10:33N 38°13' E 015°16'0 0.0
2015-Feb-20 09:33N 38°13' E 015°16'0 0.0
2015-Feb-20 08:33N 38°13' E 015°16'0 0.0
2015-Feb-20 07:33N 38°13' E 015°16'0 0.0
2015-Feb-20 06:33N 38°13' E 015°16'0 0.0
2015-Feb-19 18:33N 38°13' E 015°16'0 0.0
2015-Feb-19 17:33N 38°13' E 015°16'0 0.0
2015-Feb-19 16:33N 38°13' E 015°16'0 0.0
2015-Feb-19 15:33N 38°13' E 015°16'0 0.0
2015-Feb-19 14:33N 38°13' E 015°16'0 0.0
2015-Feb-19 13:33N 38°13' E 015°16'0 0.1
2015-Feb-19 12:33N 38°13' E 015°16'1 1.4
2015-Feb-19 11:32N 38°13' E 015°18'0 0.1
2015-Feb-19 10:32N 38°13' E 015°18'0 0.1
2015-Feb-19 09:32N 38°13' E 015°18'0 0.0
2015-Feb-19 08:32N 38°13' E 015°18'0 0.1
2015-Feb-19 07:32N 38°13' E 015°18'0 0.1
2015-Feb-19 06:32N 38°13' E 015°18'0 0.1
2015-Feb-19 05:32N 38°13' E 015°18'0 0.0
2015-Feb-18 17:32N 38°13' E 015°18'0 0.1
2015-Feb-18 16:32N 38°13' E 015°18'0 0.1
2015-Feb-18 15:32N 38°13' E 015°18'0 0.0
2015-Feb-18 14:32N 38°13' E 015°18'0 0.0
2015-Feb-18 13:32N 38°13' E 015°18'0 0.1
2015-Feb-18 12:32N 38°13' E 015°18'0 0.0
2015-Feb-18 11:32N 38°13' E 015°18'0 0.1
2015-Feb-18 10:32N 38°13' E 015°18'0 0.0
2015-Feb-18 09:32N 38°13' E 015°18'0 0.0
2015-Feb-18 08:32N 38°13' E 015°18'0 0.0
2015-Feb-18 07:32N 38°13' E 015°18'0 0.0
2015-Feb-18 06:32N 38°13' E 015°18'0 0.0
2015-Feb-17 17:32N 38°13' E 015°18'0 0.0
2015-Feb-17 16:32N 38°13' E 015°18'0 0.0
2015-Feb-17 15:32N 38°13' E 015°18'0 0.1
2015-Feb-17 14:32N 38°13' E 015°18'0 0.1
2015-Feb-17 13:32N 38°13' E 015°18'0 0.1
2015-Feb-17 12:32N 38°13' E 015°18'0 0.0
2015-Feb-17 11:32N 38°13' E 015°18'0 0.0
2015-Feb-17 10:32N 38°13' E 015°18'0 0.0
2015-Feb-17 09:32N 38°13' E 015°18'0 0.0
2015-Feb-17 08:32N 38°13' E 015°18'0 0.0
2015-Feb-17 07:32N 38°13' E 015°18'0 0.1
2015-Feb-17 06:32N 38°13' E 015°18'0 0.0
2015-Feb-17 05:32N 38°13' E 015°18'0 0.1
2015-Feb-17 04:32N 38°13' E 015°18'395 9.6
2015-Feb-15 11:23N 37°00' E 023°27'4912.5
2015-Feb-15 07:27N 37°36' E 024°11'339 9.6
2015-Feb-13 20:15N 41°38' E 029°19'  
Track history (hours):
 
Tides and Currents Weather Stations Pressure Air Temp Water Temp Dewpoint Dewpoint Depression Visibility Wind Speed Wind Dir Waves Ship Positions

Valgardena

Last reported at 2015-Feb-21 08:28 UTC. Time now 2015-Mar-02 23:09 UTC.
Position N 38°10' E 015°35'.
Warning: this ship's position is 9 days out of date.

Length 184 m; draft 7.5 m.

Type: Ship. MMSI: 247243800.

Date/timePositionNaut miles runAvg speedWind from/ knotsBaromVisibWave heightAir tempDewpointWater temp
2015-Feb-21 08:28N 38°10' E 015°35'10 8.5
2015-Feb-21 07:15N 38°20' E 015°36'913.0
2015-Feb-21 06:32N 38°18' E 015°24'8 8.6
2015-Feb-21 05:33N 38°13' E 015°16'0 0.0
2015-Feb-21 04:33N 38°13' E 015°16'0 0.0
2015-Feb-21 03:33N 38°13' E 015°16'0 0.0
2015-Feb-21 02:33N 38°13' E 015°16'0 0.0
2015-Feb-21 01:33N 38°13' E 015°16'0 0.0
2015-Feb-21 00:33N 38°13' E 015°16'0 0.0
2015-Feb-20 23:33N 38°13' E 015°16'0 0.0
2015-Feb-20 22:33N 38°13' E 015°16'0 0.0
2015-Feb-20 21:33N 38°13' E 015°16'0 0.0
2015-Feb-20 20:33N 38°13' E 015°16'0 0.0
2015-Feb-20 19:33N 38°13' E 015°16'0 0.0
2015-Feb-20 18:33N 38°13' E 015°16'0 0.0
2015-Feb-20 17:33N 38°13' E 015°16'0 0.0
2015-Feb-20 16:33N 38°13' E 015°16'0 0.0
2015-Feb-20 15:33N 38°13' E 015°16'0 0.0
2015-Feb-20 14:33N 38°13' E 015°16'0 0.0
2015-Feb-20 13:33N 38°13' E 015°16'0 0.0
2015-Feb-20 12:33N 38°13' E 015°16'0 0.0
2015-Feb-20 11:33N 38°13' E 015°16'0 0.0
2015-Feb-20 10:33N 38°13' E 015°16'0 0.0
2015-Feb-20 09:33N 38°13' E 015°16'0 0.0
2015-Feb-20 08:33N 38°13' E 015°16'0 0.0
2015-Feb-20 07:33N 38°13' E 015°16'0 0.0
2015-Feb-20 06:33N 38°13' E 015°16'0 0.0
2015-Feb-19 18:33N 38°13' E 015°16'0 0.0
2015-Feb-19 17:33N 38°13' E 015°16'0 0.0
2015-Feb-19 16:33N 38°13' E 015°16'0 0.0
2015-Feb-19 15:33N 38°13' E 015°16'0 0.0
2015-Feb-19 14:33N 38°13' E 015°16'0 0.0
2015-Feb-19 13:33N 38°13' E 015°16'0 0.1
2015-Feb-19 12:33N 38°13' E 015°16'1 1.4
2015-Feb-19 11:32N 38°13' E 015°18'0 0.1
2015-Feb-19 10:32N 38°13' E 015°18'0 0.1
2015-Feb-19 09:32N 38°13' E 015°18'0 0.0
2015-Feb-19 08:32N 38°13' E 015°18'0 0.1
2015-Feb-19 07:32N 38°13' E 015°18'0 0.1
2015-Feb-19 06:32N 38°13' E 015°18'0 0.1
2015-Feb-19 05:32N 38°13' E 015°18'0 0.0
2015-Feb-18 17:32N 38°13' E 015°18'0 0.1
2015-Feb-18 16:32N 38°13' E 015°18'0 0.1
2015-Feb-18 15:32N 38°13' E 015°18'0 0.0
2015-Feb-18 14:32N 38°13' E 015°18'0 0.0
2015-Feb-18 13:32N 38°13' E 015°18'0 0.1
2015-Feb-18 12:32N 38°13' E 015°18'0 0.0
2015-Feb-18 11:32N 38°13' E 015°18'0 0.1
2015-Feb-18 10:32N 38°13' E 015°18'0 0.0
2015-Feb-18 09:32N 38°13' E 015°18'0 0.0
2015-Feb-18 08:32N 38°13' E 015°18'0 0.0
2015-Feb-18 07:32N 38°13' E 015°18'0 0.0
2015-Feb-18 06:32N 38°13' E 015°18'0 0.0
2015-Feb-17 17:32N 38°13' E 015°18'0 0.0
2015-Feb-17 16:32N 38°13' E 015°18'0 0.0
2015-Feb-17 15:32N 38°13' E 015°18'0 0.1
2015-Feb-17 14:32N 38°13' E 015°18'0 0.1
2015-Feb-17 13:32N 38°13' E 015°18'0 0.1
2015-Feb-17 12:32N 38°13' E 015°18'0 0.0
2015-Feb-17 11:32N 38°13' E 015°18'0 0.0
2015-Feb-17 10:32N 38°13' E 015°18'0 0.0
2015-Feb-17 09:32N 38°13' E 015°18'0 0.0
2015-Feb-17 08:32N 38°13' E 015°18'0 0.0
2015-Feb-17 07:32N 38°13' E 015°18'0 0.1
2015-Feb-17 06:32N 38°13' E 015°18'0 0.0
2015-Feb-17 05:32N 38°13' E 015°18'0 0.1
2015-Feb-17 04:32N 38°13' E 015°18'395 9.6
2015-Feb-15 11:23N 37°00' E 023°27'4912.5
2015-Feb-15 07:27N 37°36' E 024°11'339 9.6
2015-Feb-13 20:15N 41°38' E 029°19'  

Dump ship's entire track history